Time;durP1;ratioP1;P1;durP2;ratioP2;P2;SDS_P1;SDS_P2;PMS_P1;PMS_P2;Temp;Humidity;BMP_temperature;BMP_pressure;BME280_temperature;BME280_humidity;BME280_pressure;Samples;Min_cycle;Max_cycle;Signal;HPM_P1;HPM_P2
2023/09/01 00:02:08;;;;;;;7.30;3.60;;;15.70;99.90;;;;;;5110646;28;20165;-47
2023/09/01 00:04:33;;;;;;;6.75;2.90;;;15.70;99.90;;;;;;5110210;28;20188;-47
2023/09/01 00:07:00;;;;;;;6.18;3.30;;;;;;;;;;5110242;28;20174;-47
2023/09/01 00:09:26;;;;;;;8.02;3.50;;;;;;;;;;5110193;28;20173;-47
2023/09/01 00:11:51;;;;;;;5.78;3.08;;;15.60;99.90;;;;;;5110273;28;20210;-47
2023/09/01 00:14:17;;;;;;;6.88;2.92;;;15.70;99.90;;;;;;5110373;28;20168;-47
2023/09/01 00:16:42;;;;;;;6.40;3.20;;;15.60;99.90;;;;;;5110123;28;20785;-47
2023/09/01 00:19:08;;;;;;;6.30;3.08;;;15.60;99.90;;;;;;5110745;28;20161;-46
2023/09/01 00:21:34;;;;;;;6.13;3.10;;;;;;;;;;5113769;28;20633;-46
2023/09/01 00:24:02;;;;;;;8.50;3.28;;;15.60;99.90;;;;;;5114341;28;20573;-46
2023/09/01 00:26:27;;;;;;;5.32;2.85;;;15.60;99.90;;;;;;5114818;28;20173;-47
2023/09/01 00:28:53;;;;;;;8.18;3.58;;;15.60;99.90;;;;;;5114333;28;20248;-46
2023/09/01 00:31:20;;;;;;;4.85;3.15;;;15.60;99.90;;;;;;5114353;28;20322;-46
2023/09/01 00:33:45;;;;;;;9.52;3.35;;;15.60;99.90;;;;;;5114019;28;20169;-46
2023/09/01 00:36:11;;;;;;;7.30;2.85;;;;;;;;;;5114049;28;20196;-46
2023/09/01 00:38:37;;;;;;;9.70;3.28;;;15.60;99.90;;;;;;5114301;28;20180;-47
2023/09/01 00:41:02;;;;;;;3.97;2.70;;;15.70;99.90;;;;;;5114068;28;20169;-47
2023/09/01 00:43:28;;;;;;;4.85;2.60;;;15.70;99.90;;;;;;5113679;28;20226;-47
2023/09/01 00:45:54;;;;;;;6.90;2.72;;;;;;;;;;5113829;28;20179;-47
2023/09/01 00:48:19;;;;;;;6.22;2.63;;;15.70;99.90;;;;;;5113957;28;20196;-47
2023/09/01 00:50:49;;;;;;;5.03;2.83;;;15.70;99.90;;;;;;5113622;28;20195;-48
2023/09/01 00:53:15;;;;;;;8.25;2.83;;;15.70;99.90;;;;;;5114088;27;20517;-47
2023/09/01 00:55:41;;;;;;;4.38;2.45;;;15.70;99.90;;;;;;5113534;28;20176;-47
2023/09/01 00:58:07;;;;;;;6.47;3.08;;;15.70;99.90;;;;;;5114021;28;20165;-47
2023/09/01 01:00:33;;;;;;;5.80;3.55;;;15.70;99.90;;;;;;5113522;28;20494;-47
2023/09/01 01:03:04;;;;;;;6.55;2.75;;;15.70;99.90;;;;;;5113697;28;20173;-47
2023/09/01 01:06:12;;;;;;;5.05;2.67;;;15.70;99.90;;;;;;5113459;28;20176;-47
2023/09/01 01:08:44;;;;;;;4.75;2.72;;;15.70;99.90;;;;;;5098465;28;20184;-47
2023/09/01 01:11:22;;;;;;;4.45;2.67;;;15.70;99.90;;;;;;5113927;27;20165;-47
2023/09/01 01:13:55;;;;;;;5.78;2.88;;;15.70;99.90;;;;;;5113438;28;20686;-47
2023/09/01 01:16:23;;;;;;;4.07;2.60;;;15.70;99.90;;;;;;5113265;28;20223;-47
2023/09/01 01:18:51;;;;;;;3.92;2.65;;;15.70;99.90;;;;;;5113357;28;20189;-48
2023/09/01 01:21:23;;;;;;;6.15;3.08;;;15.70;99.90;;;;;;5113173;28;20188;-47
2023/09/01 01:23:50;;;;;;;6.28;2.60;;;15.70;99.90;;;;;;5113533;28;20558;-47
2023/09/01 01:26:16;;;;;;;5.80;2.75;;;;;;;;;;5113085;28;20176;-48
2023/09/01 01:28:42;;;;;;;6.80;2.70;;;15.70;99.90;;;;;;5113079;28;20165;-48
2023/09/01 01:31:07;;;;;;;4.68;2.85;;;15.70;99.90;;;;;;5112503;28;20169;-48
2023/09/01 01:33:44;;;;;;;4.68;2.63;;;15.70;99.90;;;;;;5112401;28;20309;-48
2023/09/01 01:36:25;;;;;;;4.82;2.75;;;15.80;99.90;;;;;;5112922;28;20560;-48
2023/09/01 01:39:05;;;;;;;6.07;2.92;;;15.80;99.90;;;;;;5112965;28;20168;-47
2023/09/01 01:41:54;;;;;;;3.40;2.72;;;15.70;99.90;;;;;;5112568;28;20203;-47
2023/09/01 01:44:26;;;;;;;5.43;3.05;;;15.70;99.90;;;;;;5112729;28;20224;-48
2023/09/01 01:46:52;;;;;;;3.88;2.90;;;15.70;99.90;;;;;;5112744;28;20156;-47
2023/09/01 01:49:19;;;;;;;2.55;2.35;;;;;;;;;;5112998;28;20183;-47
2023/09/01 01:51:45;;;;;;;4.07;3.03;;;15.70;99.90;;;;;;5112562;28;20161;-48
2023/09/01 01:54:11;;;;;;;4.10;2.60;;;15.70;99.90;;;;;;5112587;28;20176;-47
2023/09/01 01:56:36;;;;;;;4.88;3.13;;;15.70;99.90;;;;;;5112927;28;20215;-47
2023/09/01 01:59:04;;;;;;;6.43;2.97;;;15.70;99.90;;;;;;5111211;28;20173;-47
2023/09/01 02:01:31;;;;;;;4.93;2.72;;;15.70;99.90;;;;;;5112402;28;20768;-47
2023/09/01 02:03:57;;;;;;;5.13;3.13;;;15.60;99.90;;;;;;5112646;28;20176;-47
2023/09/01 02:06:24;;;;;;;6.30;3.10;;;15.70;99.90;;;;;;5110226;28;20181;-52
2023/09/01 02:08:50;;;;;;;3.40;3.03;;;;;;;;;;5091575;28;20799;-47
2023/09/01 02:11:20;;;;;;;4.03;2.70;;;15.60;99.90;;;;;;5091721;28;20539;-53
2023/09/01 02:13:45;;;;;;;4.82;2.78;;;15.60;99.90;;;;;;5091832;28;20236;-48
2023/09/01 02:16:11;;;;;;;4.43;2.67;;;15.60;99.90;;;;;;5091632;28;20280;-47
2023/09/01 02:18:37;;;;;;;4.07;2.80;;;15.60;99.90;;;;;;5092137;28;20209;-47
2023/09/01 02:21:02;;;;;;;4.22;2.72;;;15.60;99.90;;;;;;5091593;28;20169;-47
2023/09/01 02:23:28;;;;;;;4.95;3.17;;;;;;;;;;5091671;28;20215;-48
2023/09/01 02:25:55;;;;;;;3.65;2.67;;;15.60;99.90;;;;;;5091612;28;20165;-48
2023/09/01 02:28:21;;;;;;;7.10;2.90;;;15.70;99.90;;;;;;5091530;28;20153;-48
2023/09/01 02:30:47;;;;;;;3.70;2.75;;;15.60;99.90;;;;;;5091414;28;20252;-47
2023/09/01 02:33:12;;;;;;;4.18;3.28;;;15.70;99.90;;;;;;5091534;28;20172;-48
2023/09/01 02:35:44;;;;;;;3.78;2.55;;;15.60;99.90;;;;;;5091743;28;20248;-48
2023/09/01 02:38:11;;;;;;;6.53;2.92;;;15.60;99.90;;;;;;5091311;28;20194;-48
2023/09/01 02:40:37;;;;;;;4.65;2.90;;;;;;;;;;5091688;28;20238;-49
2023/09/01 02:43:03;;;;;;;5.18;2.83;;;15.60;99.90;;;;;;5090790;28;20618;-48
2023/09/01 02:45:29;;;;;;;5.47;2.85;;;;;;;;;;5091525;28;20193;-47
2023/09/01 02:47:55;;;;;;;4.57;2.70;;;15.60;99.90;;;;;;5091301;28;20545;-47
2023/09/01 02:50:20;;;;;;;5.65;3.00;;;;;;;;;;5091155;28;20165;-48
2023/09/01 02:52:46;;;;;;;2.85;2.45;;;;;;;;;;5091150;28;20165;-48
2023/09/01 02:55:14;;;;;;;2.78;2.58;;;15.60;99.90;;;;;;5091119;28;20529;-47
2023/09/01 02:57:40;;;;;;;7.63;2.50;;;15.50;99.90;;;;;;5090827;28;20674;-48
2023/09/01 03:00:14;;;;;;;5.90;3.60;;;;;;;;;;5091238;28;20172;-47
2023/09/01 03:02:42;;;;;;;4.10;2.80;;;15.60;99.90;;;;;;5091089;28;20286;-48
2023/09/01 03:05:08;;;;;;;6.90;2.90;;;15.60;99.90;;;;;;5091495;28;20165;-48
2023/09/01 03:07:35;;;;;;;5.03;2.90;;;15.50;99.90;;;;;;5090759;28;20634;-47
2023/09/01 03:10:01;;;;;;;7.15;2.97;;;15.50;99.90;;;;;;5090823;28;20174;-47
2023/09/01 03:12:27;;;;;;;3.85;2.80;;;;;;;;;;5090472;28;20311;-47
2023/09/01 03:14:53;;;;;;;4.80;2.75;;;;;;;;;;5090975;28;20169;-48
2023/09/01 03:17:19;;;;;;;4.45;2.80;;;;;;;;;;5090826;28;20217;-47
2023/09/01 03:19:45;;;;;;;4.82;3.03;;;15.50;99.90;;;;;;5090541;28;20176;-48
2023/09/01 03:22:20;;;;;;;5.55;2.85;;;15.50;99.90;;;;;;5090376;28;20207;-48
2023/09/01 03:24:46;;;;;;;5.18;2.85;;;15.60;99.90;;;;;;5090671;28;20251;-49
2023/09/01 03:27:14;;;;;;;5.40;3.33;;;15.50;99.90;;;;;;5090447;28;20240;-47
2023/09/01 03:29:39;;;;;;;5.63;3.38;;;15.50;99.90;;;;;;5090433;28;20158;-48
2023/09/01 03:32:05;;;;;;;5.43;3.63;;;15.40;99.90;;;;;;5090729;28;20223;-47
2023/09/01 03:34:30;;;;;;;7.78;3.95;;;15.50;99.90;;;;;;5090235;28;20165;-48
2023/09/01 03:36:56;;;;;;;6.70;3.72;;;15.50;99.90;;;;;;5090018;28;20729;-47
2023/09/01 03:39:21;;;;;;;7.20;4.18;;;15.40;99.90;;;;;;5090299;28;20249;-47
2023/09/01 03:41:47;;;;;;;9.13;4.32;;;15.50;99.90;;;;;;5090125;28;20252;-47
2023/09/01 03:44:12;;;;;;;8.18;4.28;;;15.50;99.90;;;;;;5090059;28;20296;-47
2023/09/01 03:46:38;;;;;;;6.07;4.45;;;;;;;;;;5090533;28;20173;-48
2023/09/01 03:49:04;;;;;;;7.05;4.40;;;;;;;;;;5090561;28;20173;-48
2023/09/01 03:51:30;;;;;;;7.10;5.65;;;15.50;99.90;;;;;;5090099;28;20172;-48
2023/09/01 03:53:55;;;;;;;6.35;4.60;;;15.50;99.90;;;;;;5089637;28;20657;-47
2023/09/01 03:56:22;;;;;;;7.07;4.28;;;15.40;99.90;;;;;;5089619;28;20207;-47
2023/09/01 03:58:48;;;;;;;10.20;4.60;;;15.50;99.90;;;;;;5090034;28;20161;-48
2023/09/01 04:01:14;;;;;;;7.90;5.05;;;15.50;99.90;;;;;;5089973;28;20165;-47
2023/09/01 04:03:44;;;;;;;13.43;5.88;;;15.40;99.90;;;;;;5090017;28;20172;-48
2023/09/01 04:06:10;;;;;;;11.05;4.85;;;15.40;99.90;;;;;;5089770;28;20649;-48
2023/09/01 04:08:36;;;;;;;7.65;4.85;;;15.40;99.90;;;;;;5090349;28;20176;-48
2023/09/01 04:11:03;;;;;;;11.45;6.03;;;15.40;99.90;;;;;;5090338;28;20634;-48
2023/09/01 04:13:29;;;;;;;9.65;6.22;;;15.40;99.90;;;;;;5090114;28;20668;-47
2023/09/01 04:15:55;;;;;;;11.00;6.90;;;;;;;;;;5089630;28;20197;-47
2023/09/01 04:18:22;;;;;;;6.70;5.80;;;15.40;99.90;;;;;;5089838;28;20165;-48
2023/09/01 04:20:51;;;;;;;7.38;6.03;;;15.30;99.90;;;;;;5089507;28;20219;-49
2023/09/01 04:23:17;;;;;;;9.77;6.80;;;15.40;99.90;;;;;;5089835;28;20672;-48
2023/09/01 04:25:44;;;;;;;11.05;7.68;;;15.50;99.90;;;;;;5089701;28;20157;-47
2023/09/01 04:28:10;;;;;;;9.15;7.18;;;;;;;;;;5089829;28;20646;-47
2023/09/01 04:30:36;;;;;;;10.07;6.60;;;;;;;;;;5090172;28;20165;-47
2023/09/01 04:33:04;;;;;;;16.38;9.70;;;15.50;99.90;;;;;;5089799;28;20169;-48
2023/09/01 04:35:31;;;;;;;10.60;8.13;;;;;;;;;;5089742;28;20177;-48
2023/09/01 04:37:56;;;;;;;12.57;7.72;;;15.50;99.90;;;;;;5089530;28;20543;-48
2023/09/01 04:40:22;;;;;;;27.25;14.32;;;15.40;99.90;;;;;;5089596;28;20172;-48
2023/09/01 04:42:48;;;;;;;19.60;12.50;;;;;;;;;;5089493;28;20532;-48
2023/09/01 04:45:13;;;;;;;14.80;9.02;;;15.40;99.90;;;;;;5089384;28;20209;-47
2023/09/01 04:47:39;;;;;;;11.40;8.25;;;15.50;99.90;;;;;;5089370;28;20168;-48
2023/09/01 04:50:05;;;;;;;13.65;8.68;;;15.50;99.90;;;;;;5089551;28;20516;-47
2023/09/01 04:52:30;;;;;;;12.07;8.10;;;15.40;99.90;;;;;;5089253;28;20174;-48
2023/09/01 04:54:56;;;;;;;9.38;7.38;;;15.50;99.90;;;;;;5089505;28;20170;-48
2023/09/01 04:57:22;;;;;;;14.45;9.15;;;15.40;99.90;;;;;;5089586;28;20213;-48
2023/09/01 04:59:48;;;;;;;20.48;12.23;;;;;;;;;;5089394;28;20165;-49
2023/09/01 05:02:14;;;;;;;15.07;8.77;;;;;;;;;;5089207;28;20196;-47
2023/09/01 05:04:40;;;;;;;23.50;14.38;;;15.50;99.90;;;;;;5089375;28;20692;-47
2023/09/01 05:07:05;;;;;;;19.30;10.15;;;15.50;99.90;;;;;;5092422;28;20287;-48
2023/09/01 05:09:31;;;;;;;16.02;10.73;;;15.50;99.90;;;;;;5093055;28;20172;-48
2023/09/01 05:11:57;;;;;;;55.40;26.63;;;;;;;;;;5092846;28;20290;-48
2023/09/01 05:14:22;;;;;;;16.25;10.73;;;15.60;99.90;;;;;;5092985;28;20252;-52
2023/09/01 05:16:48;;;;;;;16.02;10.00;;;15.60;99.90;;;;;;5092749;28;20201;-48
2023/09/01 05:19:13;;;;;;;14.52;8.93;;;15.60;99.90;;;;;;5092699;28;20176;-48
2023/09/01 05:21:39;;;;;;;11.10;8.82;;;;;;;;;;5092815;28;20256;-48
2023/09/01 05:24:05;;;;;;;12.48;9.43;;;15.60;99.90;;;;;;5092907;28;20165;-48
2023/09/01 05:26:31;;;;;;;15.52;9.57;;;15.70;99.90;;;;;;5092436;28;20196;-49
2023/09/01 05:28:56;;;;;;;12.27;9.07;;;15.60;99.90;;;;;;5091589;28;20701;-48
2023/09/01 05:31:22;;;;;;;12.38;8.98;;;15.60;99.90;;;;;;5092460;28;20196;-47
2023/09/01 05:33:48;;;;;;;20.52;10.95;;;15.70;99.90;;;;;;5092383;28;20212;-48
2023/09/01 05:36:14;;;;;;;19.40;10.38;;;;;;;;;;5092132;28;20283;-48
2023/09/01 05:38:40;;;;;;;11.82;6.68;;;;;;;;;;5092310;28;20176;-48
2023/09/01 05:41:06;;;;;;;15.80;8.20;;;;;;;;;;5110838;28;20180;-48
2023/09/01 05:43:32;;;;;;;15.75;8.52;;;15.60;99.90;;;;;;5112448;28;20262;-49
2023/09/01 05:45:58;;;;;;;8.30;6.70;;;15.70;99.90;;;;;;5112550;28;20177;-48
2023/09/01 05:48:24;;;;;;;9.90;6.60;;;;;;;;;;5112667;28;20165;-49
2023/09/01 05:50:50;;;;;;;9.98;6.30;;;15.70;99.90;;;;;;5112706;28;20175;-49
2023/09/01 05:53:16;;;;;;;7.25;6.55;;;15.70;99.90;;;;;;5112478;28;20522;-50
2023/09/01 05:55:41;;;;;;;7.28;5.60;;;15.70;99.90;;;;;;5112587;28;20221;-47
2023/09/01 05:58:07;;;;;;;13.98;8.02;;;;;;;;;;5112744;28;20249;-48
2023/09/01 06:00:33;;;;;;;10.32;6.97;;;;;;;;;;5111141;28;20172;-47
2023/09/01 06:02:59;;;;;;;16.27;9.95;;;15.90;99.90;;;;;;5112287;28;20172;-48
2023/09/01 06:05:25;;;;;;;10.52;7.15;;;15.90;99.90;;;;;;5112257;28;20165;-48
2023/09/01 06:07:51;;;;;;;16.27;7.80;;;;;;;;;;5112335;28;20263;-48
2023/09/01 06:10:16;;;;;;;16.77;8.00;;;16.10;99.90;;;;;;5112130;28;20164;-53
2023/09/01 06:12:42;;;;;;;23.00;10.57;;;16.00;99.90;;;;;;5112131;28;20233;-51
2023/09/01 06:15:08;;;;;;;14.68;7.97;;;16.10;99.90;;;;;;5111876;28;20176;-48
2023/09/01 06:17:34;;;;;;;14.05;8.30;;;16.20;99.90;;;;;;5111690;28;20236;-48
2023/09/01 06:20:00;;;;;;;11.25;6.60;;;16.10;99.90;;;;;;5111974;28;20195;-48
2023/09/01 06:22:26;;;;;;;11.43;6.60;;;16.20;99.90;;;;;;5111790;28;20177;-47
2023/09/01 06:24:52;;;;;;;7.18;6.10;;;;;;;;;;5111836;28;20168;-48
2023/09/01 06:27:18;;;;;;;10.95;7.85;;;;;;;;;;5111817;28;20257;-48
2023/09/01 06:29:43;;;;;;;16.23;9.10;;;16.10;99.90;;;;;;5111632;28;20249;-51
2023/09/01 06:32:11;;;;;;;14.65;8.05;;;16.30;99.90;;;;;;5110501;28;20180;-47
2023/09/01 06:34:38;;;;;;;9.20;6.35;;;16.10;99.90;;;;;;5111988;28;20172;-49
2023/09/01 06:37:03;;;;;;;8.30;6.05;;;16.20;99.90;;;;;;5112328;28;20211;-49
2023/09/01 06:39:29;;;;;;;8.70;5.82;;;;;;;;;;5111563;28;20165;-48
2023/09/01 06:41:55;;;;;;;6.95;5.75;;;16.20;99.90;;;;;;5111528;28;20536;-48
2023/09/01 06:44:21;;;;;;;8.13;5.30;;;;;;;;;;5111253;28;20223;-48
2023/09/01 06:46:47;;;;;;;8.65;6.28;;;;;;;;;;5110233;28;20169;-48
2023/09/01 06:49:14;;;;;;;11.02;6.60;;;;;;;;;;5111051;28;20613;-47
2023/09/01 06:51:40;;;;;;;13.00;7.63;;;;;;;;;;5111784;28;20176;-47
2023/09/01 06:54:06;;;;;;;8.25;5.50;;;;;;;;;;5111598;28;20168;-48
2023/09/01 06:56:32;;;;;;;11.40;7.03;;;16.50;99.90;;;;;;5111185;28;20667;-48
2023/09/01 06:58:58;;;;;;;11.15;7.32;;;16.40;99.90;;;;;;5110900;28;20172;-48
2023/09/01 07:01:24;;;;;;;14.00;7.57;;;;;;;;;;5111048;28;20209;-48
2023/09/01 07:03:50;;;;;;;10.93;5.70;;;16.50;99.90;;;;;;5111245;28;20190;-47
2023/09/01 07:06:16;;;;;;;7.68;5.22;;;16.50;99.90;;;;;;5111178;28;20248;-48
2023/09/01 07:08:43;;;;;;;8.73;4.88;;;16.50;99.90;;;;;;5111276;28;20175;-48
2023/09/01 07:11:10;;;;;;;7.97;5.10;;;16.60;99.90;;;;;;5111175;28;20533;-47
2023/09/01 07:13:36;;;;;;;8.57;5.38;;;16.50;99.90;;;;;;5111133;28;20165;-48
2023/09/01 07:16:03;;;;;;;8.25;5.00;;;;;;;;;;5111126;28;20203;-48
2023/09/01 07:18:29;;;;;;;5.40;4.53;;;16.60;99.90;;;;;;5110728;27;20184;-48
2023/09/01 07:20:58;;;;;;;6.57;5.25;;;16.60;99.90;;;;;;5110801;28;20614;-47
2023/09/01 07:23:24;;;;;;;6.82;4.55;;;;;;;;;;5110604;28;20629;-48
2023/09/01 07:25:51;;;;;;;16.55;6.95;;;16.60;99.90;;;;;;5111282;28;20164;-48
2023/09/01 07:28:16;;;;;;;15.63;7.68;;;16.60;99.90;;;;;;5110561;27;20168;-48
2023/09/01 07:30:42;;;;;;;17.15;6.63;;;16.70;99.90;;;;;;5107951;28;20534;-47
2023/09/01 07:33:08;;;;;;;5.05;4.10;;;;;;;;;;5110792;28;20526;-48
2023/09/01 07:35:34;;;;;;;5.85;4.15;;;;;;;;;;5111166;28;20228;-47
2023/09/01 07:38:00;;;;;;;7.22;4.40;;;16.70;99.90;;;;;;5110391;28;20201;-48
2023/09/01 07:40:27;;;;;;;8.20;4.60;;;16.70;99.90;;;;;;5110537;28;20751;-48
2023/09/01 07:42:53;;;;;;;6.32;4.50;;;;;;;;;;5110621;27;20203;-52
2023/09/01 07:45:19;;;;;;;11.55;4.93;;;16.70;99.90;;;;;;5110410;28;20247;-51
2023/09/01 07:47:44;;;;;;;30.90;11.20;;;16.70;99.90;;;;;;5110280;28;20165;-53
2023/09/01 07:50:10;;;;;;;21.38;10.05;;;16.70;99.90;;;;;;5110255;28;20168;-52
2023/09/01 07:52:36;;;;;;;6.28;4.00;;;;;;;;;;5110908;28;20297;-52
2023/09/01 07:55:05;;;;;;;20.98;10.32;;;16.80;99.90;;;;;;5110199;28;20506;-52
2023/09/01 07:57:31;;;;;;;9.63;5.80;;;;;;;;;;5110144;28;20216;-51
2023/09/01 07:59:56;;;;;;;6.25;3.60;;;16.70;99.90;;;;;;5110567;28;20324;-51
2023/09/01 08:02:22;;;;;;;4.97;3.55;;;16.80;99.90;;;;;;5110095;28;20169;-52
2023/09/01 08:04:47;;;;;;;4.22;3.60;;;16.70;99.90;;;;;;5110138;28;20233;-52
2023/09/01 08:07:13;;;;;;;9.68;4.47;;;16.70;99.90;;;;;;5110304;28;20183;-47
2023/09/01 08:09:38;;;;;;;9.52;4.25;;;16.60;99.90;;;;;;5108822;28;20565;-48
2023/09/01 08:12:04;;;;;;;6.00;4.20;;;16.60;99.90;;;;;;5110456;28;20215;-48
2023/09/01 08:14:30;;;;;;;3.72;2.97;;;16.60;99.90;;;;;;5110042;28;20507;-48
2023/09/01 08:16:55;;;;;;;6.75;4.75;;;16.40;99.90;;;;;;5109850;28;20208;-48
2023/09/01 08:19:21;;;;;;;7.75;2.92;;;;;;;;;;5110265;28;20169;-48
2023/09/01 08:21:47;;;;;;;6.40;3.25;;;;;;;;;;5110021;28;20172;-48
2023/09/01 08:24:13;;;;;;;5.38;3.70;;;16.50;99.90;;;;;;5109995;28;20200;-48
2023/09/01 08:26:38;;;;;;;4.15;2.95;;;16.50;99.90;;;;;;5109844;28;20161;-48
2023/09/01 08:29:04;;;;;;;4.75;3.30;;;16.40;99.90;;;;;;5110359;28;20629;-48
2023/09/01 08:31:32;;;;;;;3.72;2.60;;;16.50;99.90;;;;;;5109893;28;20175;-48
2023/09/01 08:33:58;;;;;;;2.83;2.60;;;;;;;;;;5110101;28;20181;-48
2023/09/01 08:36:24;;;;;;;3.92;2.75;;;;;;;;;;5108468;28;20205;-48
2023/09/01 08:38:50;;;;;;;6.00;2.67;;;;;;;;;;5109885;28;20165;-49
2023/09/01 08:41:16;;;;;;;4.97;3.05;;;16.60;99.90;;;;;;5111390;28;20180;-48
2023/09/01 08:43:44;;;;;;;5.53;3.00;;;16.70;99.90;;;;;;5113769;28;20209;-48
2023/09/01 08:46:11;;;;;;;5.53;3.60;;;16.90;99.90;;;;;;5113959;28;20672;-48
2023/09/01 08:48:37;;;;;;;8.38;3.72;;;17.00;99.90;;;;;;5114076;28;20165;-47
2023/09/01 08:51:03;;;;;;;8.05;4.20;;;16.90;99.90;;;;;;5113756;28;20176;-49
2023/09/01 08:53:29;;;;;;;5.80;4.70;;;16.90;99.90;;;;;;5113645;28;20169;-48
2023/09/01 08:55:55;;;;;;;6.78;4.75;;;16.90;99.90;;;;;;5113831;28;20645;-49
2023/09/01 08:58:21;;;;;;;7.57;4.03;;;16.70;99.90;;;;;;5113513;28;20176;-47
2023/09/01 09:00:48;;;;;;;5.93;4.55;;;16.80;99.90;;;;;;5113711;28;20153;-47
2023/09/01 09:03:17;;;;;;;6.63;3.53;;;16.80;99.90;;;;;;5113702;28;20173;-47
2023/09/01 09:05:44;;;;;;;3.50;2.95;;;16.70;99.90;;;;;;5113739;28;20503;-47
2023/09/01 09:08:10;;;;;;;3.55;2.75;;;16.60;99.90;;;;;;5113324;28;20252;-47
2023/09/01 09:10:38;;;;;;;4.60;2.70;;;16.60;99.90;;;;;;5114166;28;20256;-47
2023/09/01 09:13:20;;;;;;;4.00;2.83;;;16.70;99.90;;;;;;5114071;28;20846;-46
2023/09/01 09:15:45;;;;;;;3.95;2.60;;;16.70;99.90;;;;;;5113551;28;20238;-53
2023/09/01 09:18:27;;;;;;;4.28;3.10;;;16.60;99.90;;;;;;5112677;28;20172;-49
2023/09/01 09:20:53;;;;;;;4.38;3.17;;;16.60;99.90;;;;;;5113221;28;20689;-51
2023/09/01 09:23:18;;;;;;;4.70;3.60;;;16.70;99.90;;;;;;5113110;28;20200;-47
2023/09/01 09:25:44;;;;;;;7.97;7.15;;;;;;;;;;5113122;28;20168;-47
2023/09/01 09:28:12;;;;;;;5.00;3.85;;;17.00;99.90;;;;;;5113097;27;20195;-47
2023/09/01 09:30:51;;;;;;;3.78;2.53;;;16.80;99.90;;;;;;5112553;28;20160;-47
2023/09/01 09:33:29;;;;;;;3.15;2.53;;;17.00;99.90;;;;;;5111227;28;20255;-47
2023/09/01 09:35:54;;;;;;;5.22;3.40;;;17.00;99.90;;;;;;5112567;28;20284;-47
2023/09/01 09:38:21;;;;;;;3.80;2.50;;;;;;;;;;5112608;28;20293;-47
2023/09/01 09:40:57;;;;;;;4.00;2.45;;;17.00;99.90;;;;;;5112690;28;20516;-47
2023/09/01 09:43:22;;;;;;;3.63;2.72;;;17.10;99.90;;;;;;5111270;28;20215;-46
2023/09/01 09:45:51;;;;;;;3.50;2.95;;;17.00;99.90;;;;;;5112659;28;20173;-47
2023/09/01 09:48:17;;;;;;;2.90;2.60;;;17.10;99.90;;;;;;5112386;27;20160;-46
2023/09/01 09:50:43;;;;;;;4.32;3.10;;;17.00;99.90;;;;;;5112529;28;20248;-47
2023/09/01 09:53:13;;;;;;;5.00;3.35;;;17.20;99.90;;;;;;5111544;28;20181;-46
2023/09/01 09:55:44;;;;;;;6.15;4.18;;;17.30;99.90;;;;;;5111098;28;20556;-47
2023/09/01 09:58:10;;;;;;;4.78;3.78;;;;;;;;;;5112167;28;20956;-47
2023/09/01 10:00:50;;;;;;;6.57;3.50;;;17.60;99.90;;;;;;5112518;28;20755;-47
2023/09/01 10:03:18;;;;;;;4.63;4.22;;;17.60;99.90;;;;;;5112170;28;20176;-47
2023/09/01 10:05:45;;;;;;;4.60;4.05;;;17.50;99.90;;;;;;5112418;28;20563;-47
2023/09/01 10:08:11;;;;;;;4.82;4.40;;;17.80;99.90;;;;;;5111874;28;20219;-47
2023/09/01 10:10:37;;;;;;;4.63;4.22;;;;;;;;;;5112227;28;20157;-47
2023/09/01 10:13:06;;;;;;;5.32;4.93;;;18.00;99.90;;;;;;5112422;28;20172;-47
2023/09/01 10:15:34;;;;;;;6.20;4.90;;;17.90;99.90;;;;;;5112374;28;20164;-46
2023/09/01 10:18:02;;;;;;;5.93;5.32;;;18.00;99.90;;;;;;5110319;28;20197;-47
2023/09/01 10:20:30;;;;;;;6.32;5.72;;;18.00;99.90;;;;;;5111887;28;20161;-46
2023/09/01 10:22:56;;;;;;;8.27;6.32;;;18.30;99.90;;;;;;5112151;28;20168;-46
2023/09/01 10:25:22;;;;;;;6.35;5.75;;;;;;;;;;5111969;28;20252;-46
2023/09/01 10:28:18;;;;;;;8.00;6.68;;;18.40;99.90;;;;;;5111895;28;20222;-46
2023/09/01 10:30:45;;;;;;;6.95;6.30;;;18.40;99.90;;;;;;5111372;28;20172;-52
2023/09/01 10:33:15;;;;;;;7.93;7.00;;;18.50;99.90;;;;;;5111554;28;20161;-46
2023/09/01 10:35:50;;;;;;;8.75;6.40;;;18.70;99.90;;;;;;5111581;28;20702;-45
2023/09/01 10:38:18;;;;;;;7.05;6.43;;;18.90;99.90;;;;;;5111913;28;20267;-46
2023/09/01 10:40:48;;;;;;;7.13;6.47;;;19.10;99.90;;;;;;5111584;28;20253;-46
2023/09/01 10:43:41;;;;;;;6.32;4.05;;;19.00;99.90;;;;;;5111537;28;20172;-46
2023/09/01 10:46:12;;;;;;;6.72;5.05;;;19.00;99.90;;;;;;5111539;28;20175;-54
2023/09/01 10:48:50;;;;;;;6.10;4.22;;;19.10;99.90;;;;;;5111211;28;20160;-51
2023/09/01 10:51:26;;;;;;;4.97;4.13;;;19.20;99.90;;;;;;5111537;28;20237;-51
2023/09/01 10:53:53;;;;;;;6.90;4.57;;;19.20;99.90;;;;;;5069840;28;20185;-52
2023/09/01 10:56:20;;;;;;;8.82;5.32;;;19.40;99.90;;;;;;5070798;28;20202;-52
2023/09/01 10:58:55;;;;;;;5.93;4.78;;;19.10;99.90;;;;;;5070160;28;20173;-52
2023/09/01 11:01:36;;;;;;;7.47;4.10;;;19.10;99.90;;;;;;5094021;28;20172;-51
2023/09/01 11:04:14;;;;;;;7.28;4.68;;;19.00;99.90;;;;;;5110747;28;20652;-52
2023/09/01 11:07:03;;;;;;;7.38;3.83;;;19.10;99.90;;;;;;5110471;28;20180;-52
2023/09/01 11:09:35;;;;;;;5.15;3.33;;;19.00;99.90;;;;;;5105281;28;20173;-48
2023/09/01 11:12:04;;;;;;;6.82;3.30;;;18.90;99.90;;;;;;5110915;28;20172;-48
2023/09/01 11:14:30;;;;;;;7.68;3.47;;;18.90;99.90;;;;;;5110534;28;20176;-46
2023/09/01 11:16:56;;;;;;;6.38;3.75;;;18.80;99.90;;;;;;5110477;28;20204;-47
2023/09/01 11:19:22;;;;;;;5.32;3.47;;;;;;;;;;5110602;28;20179;-47
2023/09/01 11:21:48;;;;;;;5.50;3.10;;;;;;;;;;5109239;28;20233;-46
2023/09/01 11:24:14;;;;;;;6.03;3.65;;;18.80;99.90;;;;;;5109452;28;20164;-45
2023/09/01 11:26:40;;;;;;;5.95;3.08;;;18.60;99.90;;;;;;5110796;28;20196;-46
2023/09/01 11:29:11;;;;;;;6.93;2.70;;;17.20;99.90;;;;;;5111013;28;20217;-46
2023/09/01 11:31:42;;;;;;;5.85;3.35;;;18.80;99.90;;;;;;5110474;28;20164;-45
2023/09/01 11:34:08;;;;;;;5.90;3.38;;;;;;;;;;5110531;27;20172;-46
2023/09/01 11:36:34;;;;;;;7.55;2.90;;;18.40;99.90;;;;;;5109581;28;20680;-48
2023/09/01 11:39:00;;;;;;;3.35;2.28;;;18.20;99.90;;;;;;5110716;28;20200;-45
2023/09/01 11:41:27;;;;;;;2.30;1.95;;;18.30;99.90;;;;;;5110772;28;20323;-45
2023/09/01 11:43:56;;;;;;;4.30;2.30;;;18.30;99.90;;;;;;5110305;28;20232;-45
2023/09/01 11:46:32;;;;;;;5.72;3.85;;;18.60;99.90;;;;;;5110387;28;20200;-46
2023/09/01 11:48:58;;;;;;;3.67;3.38;;;18.70;99.90;;;;;;5110770;28;20203;-46
2023/09/01 11:51:31;;;;;;;3.53;3.17;;;18.70;99.90;;;;;;5110681;28;20260;-46
2023/09/01 11:53:57;;;;;;;5.60;3.53;;;18.60;99.90;;;;;;5110563;28;21121;-45
2023/09/01 11:56:22;;;;;;;8.82;4.32;;;18.60;99.90;;;;;;5110058;28;20196;-46
2023/09/01 11:58:50;;;;;;;4.30;3.60;;;18.50;99.90;;;;;;5110388;28;20574;-46
2023/09/01 12:01:17;;;;;;;3.75;2.83;;;18.70;99.90;;;;;;5110293;28;20160;-46
2023/09/01 12:03:54;;;;;;;3.65;2.58;;;18.90;99.90;;;;;;5110379;28;20629;-45
2023/09/01 12:06:27;;;;;;;4.32;2.30;;;19.00;99.90;;;;;;5099623;28;20654;-45
2023/09/01 12:08:55;;;;;;;2.30;2.00;;;19.10;99.90;;;;;;5090057;28;20169;-46
2023/09/01 12:11:21;;;;;;;4.38;2.10;;;19.20;99.90;;;;;;5089939;28;20169;-45
2023/09/01 12:13:47;;;;;;;3.35;2.00;;;19.30;99.90;;;;;;5090005;28;20172;-46
2023/09/01 12:16:25;;;;;;;4.72;2.22;;;19.50;99.90;;;;;;5090963;28;20197;-48
2023/09/01 12:18:53;;;;;;;4.28;2.13;;;19.50;99.90;;;;;;5093921;28;20165;-50
2023/09/01 12:21:18;;;;;;;4.70;2.75;;;19.80;99.90;;;;;;5093852;28;20630;-49
2023/09/01 12:23:46;;;;;;;4.55;2.53;;;19.90;99.90;;;;;;5093992;28;20172;-52
2023/09/01 12:26:15;;;;;;;3.00;2.50;;;20.10;99.90;;;;;;5092563;28;20156;-45
2023/09/01 12:28:42;;;;;;;4.90;3.63;;;20.40;99.90;;;;;;5094332;28;20192;-47
2023/09/01 12:31:09;;;;;;;3.75;3.00;;;;;;;;;;5093903;28;20289;-45
2023/09/01 12:33:35;;;;;;;3.83;2.75;;;20.80;99.90;;;;;;5094234;28;20176;-51
2023/09/01 12:36:02;;;;;;;3.88;2.83;;;21.10;99.90;;;;;;5093317;28;20244;-45
2023/09/01 12:38:28;;;;;;;4.43;2.63;;;;;;;;;;5093415;28;20185;-46
2023/09/01 12:40:55;;;;;;;4.85;2.60;;;21.10;99.90;;;;;;5093632;28;20175;-46
2023/09/01 12:43:21;;;;;;;4.28;2.50;;;21.00;99.90;;;;;;5093335;28;20316;-45
2023/09/01 12:45:47;;;;;;;3.97;2.40;;;20.90;99.90;;;;;;5093379;28;20244;-45
2023/09/01 12:48:14;;;;;;;3.22;2.58;;;21.00;99.90;;;;;;5093077;28;20218;-46
2023/09/01 12:50:44;;;;;;;5.57;2.20;;;21.20;99.90;;;;;;5093062;28;20623;-46
2023/09/01 12:53:10;;;;;;;7.50;2.50;;;;;;;;;;5093044;28;20199;-47
2023/09/01 12:55:36;;;;;;;4.35;2.90;;;20.80;99.90;;;;;;5093576;28;20200;-45
2023/09/01 12:58:02;;;;;;;4.60;3.00;;;;;;;;;;5093635;28;20209;-46
2023/09/01 13:00:28;;;;;;;3.67;2.28;;;;;;;;;;5093389;28;20169;-46
2023/09/01 13:02:54;;;;;;;4.25;2.40;;;20.30;99.90;;;;;;5093165;28;20527;-52
2023/09/01 13:05:21;;;;;;;2.75;1.92;;;20.20;99.90;;;;;;5093054;28;20172;-48
2023/09/01 13:07:48;;;;;;;3.63;2.65;;;20.10;99.90;;;;;;5093334;28;20170;-46
2023/09/01 13:10:15;;;;;;;5.88;2.63;;;19.90;99.90;;;;;;5091603;28;20173;-46